Terminal Aerodrome Forecast
Issued by NWS Blacksburg, VA

Home | Current Version | Previous Version | Text Only | Print | Product List | Glossary On
Versions: 1 2 3 4 5 6 7 8 9 10 11 12 13 14 15 16 17 18 19 20 21 22 23 24 25 26 27 28 29 30 31 32 33 34
000
FTUS41 KRNK 280540
TAFBLF
TAF
KBLF 280540Z 2806/2906 25010KT P6SM -SHRA VCTS SCT025 BKN035CB
      TEMPO 2806/2808 25015G25KT 3SM -TSRA
     FM280900 28010G20KT P6SM VCSH OVC012
     FM281400 28012G22KT P6SM BKN020
     FM282200 30012KT P6SM VCSH BKN015=

USA.gov is the U.S. government's official web portal to all federal, state and local government web resources and services.